sensor_id;sensor_type;location;lat;lon;timestamp;pressure;altitude;pressure_sealevel;temperature;humidity
23241;BME280;11789;53.482;9.862;2023-02-01T00:01:19;101221.00;;;3.40;100.00
23241;BME280;11789;53.482;9.862;2023-02-01T00:03:45;101211.66;;;3.41;100.00
23241;BME280;11789;53.482;9.862;2023-02-01T00:06:10;101201.50;;;3.44;100.00
23241;BME280;11789;53.482;9.862;2023-02-01T00:08:36;101211.06;;;3.49;100.00
23241;BME280;11789;53.482;9.862;2023-02-01T00:11:05;101200.91;;;3.51;100.00
23241;BME280;11789;53.482;9.862;2023-02-01T00:13:32;101201.00;;;3.54;100.00
23241;BME280;11789;53.482;9.862;2023-02-01T00:16:05;101207.09;;;3.57;100.00
23241;BME280;11789;53.482;9.862;2023-02-01T00:18:31;101198.66;;;3.60;100.00
23241;BME280;11789;53.482;9.862;2023-02-01T00:20:57;101209.81;;;3.62;100.00
23241;BME280;11789;53.482;9.862;2023-02-01T00:23:22;101195.38;;;3.64;100.00
23241;BME280;11789;53.482;9.862;2023-02-01T00:25:47;101200.59;;;3.67;100.00
23241;BME280;11789;53.482;9.862;2023-02-01T00:28:13;101195.59;;;3.70;100.00
23241;BME280;11789;53.482;9.862;2023-02-01T00:30:38;101190.56;;;3.73;100.00
23241;BME280;11789;53.482;9.862;2023-02-01T00:33:04;101198.34;;;3.76;100.00
23241;BME280;11789;53.482;9.862;2023-02-01T00:35:29;101192.41;;;3.77;100.00
23241;BME280;11789;53.482;9.862;2023-02-01T00:37:55;101190.72;;;3.78;100.00
23241;BME280;11789;53.482;9.862;2023-02-01T00:40:24;101198.41;;;3.79;100.00
23241;BME280;11789;53.482;9.862;2023-02-01T00:42:49;101189.06;;;3.80;100.00
23241;BME280;11789;53.482;9.862;2023-02-01T00:45:14;101193.41;;;3.82;100.00
23241;BME280;11789;53.482;9.862;2023-02-01T00:47:40;101196.88;;;3.84;100.00
23241;BME280;11789;53.482;9.862;2023-02-01T00:50:06;101192.69;;;3.86;100.00
23241;BME280;11789;53.482;9.862;2023-02-01T00:52:31;101196.16;;;3.88;100.00
23241;BME280;11789;53.482;9.862;2023-02-01T00:54:57;101194.44;;;3.87;100.00
23241;BME280;11789;53.482;9.862;2023-02-01T00:57:22;101191.88;;;3.87;100.00
23241;BME280;11789;53.482;9.862;2023-02-01T00:59:47;101191.03;;;3.88;100.00
23241;BME280;11789;53.482;9.862;2023-02-01T01:02:13;101185.94;;;3.88;100.00
23241;BME280;11789;53.482;9.862;2023-02-01T01:04:40;101185.09;;;3.89;100.00
23241;BME280;11789;53.482;9.862;2023-02-01T01:07:06;101180.84;;;3.90;100.00
23241;BME280;11789;53.482;9.862;2023-02-01T01:09:31;101176.63;;;3.90;100.00
23241;BME280;11789;53.482;9.862;2023-02-01T01:11:56;101176.66;;;3.92;100.00
23241;BME280;11789;53.482;9.862;2023-02-01T01:14:22;101180.09;;;3.93;100.00
23241;BME280;11789;53.482;9.862;2023-02-01T01:16:47;101181.06;;;3.96;100.00
23241;BME280;11789;53.482;9.862;2023-02-01T01:19:15;101177.72;;;3.99;100.00
23241;BME280;11789;53.482;9.862;2023-02-01T01:21:41;101176.03;;;3.99;100.00
23241;BME280;11789;53.482;9.862;2023-02-01T01:24:06;101182.94;;;4.02;100.00
23241;BME280;11789;53.482;9.862;2023-02-01T01:26:31;101177.00;;;4.03;100.00
23241;BME280;11789;53.482;9.862;2023-02-01T01:28:58;101178.72;;;4.04;100.00
23241;BME280;11789;53.482;9.862;2023-02-01T01:31:24;101171.91;;;4.04;100.00
23241;BME280;11789;53.482;9.862;2023-02-01T01:33:51;101171.06;;;4.04;100.00
23241;BME280;11789;53.482;9.862;2023-02-01T01:36:18;101161.69;;;4.04;100.00
23241;BME280;11789;53.482;9.862;2023-02-01T01:38:43;101160.81;;;4.04;100.00
23241;BME280;11789;53.482;9.862;2023-02-01T01:41:16;101154.00;;;4.04;100.00
23241;BME280;11789;53.482;9.862;2023-02-01T01:44:00;101145.50;;;4.05;100.00
23241;BME280;11789;53.482;9.862;2023-02-01T01:46:37;101143.84;;;4.06;100.00
23241;BME280;11789;53.482;9.862;2023-02-01T01:49:18;101142.94;;;4.05;100.00
23241;BME280;11789;53.482;9.862;2023-02-01T01:51:59;101138.72;;;4.06;100.00
23241;BME280;11789;53.482;9.862;2023-02-01T01:54:33;101140.47;;;4.07;100.00
23241;BME280;11789;53.482;9.862;2023-02-01T01:57:15;101131.97;;;4.08;100.00
23241;BME280;11789;53.482;9.862;2023-02-01T01:59:44;101121.75;;;4.09;100.00
23241;BME280;11789;53.482;9.862;2023-02-01T02:02:12;101129.44;;;4.09;100.00
23241;BME280;11789;53.482;9.862;2023-02-01T02:04:38;101120.84;;;4.07;100.00
23241;BME280;11789;53.482;9.862;2023-02-01T02:07:16;101126.84;;;4.08;100.00
23241;BME280;11789;53.482;9.862;2023-02-01T02:09:42;101120.00;;;4.07;100.00
23241;BME280;11789;53.482;9.862;2023-02-01T02:12:09;101118.25;;;4.06;100.00
23241;BME280;11789;53.482;9.862;2023-02-01T02:14:36;101108.78;;;4.03;100.00
23241;BME280;11789;53.482;9.862;2023-02-01T02:28:47;101094.25;;;4.01;100.00
23241;BME280;11789;53.482;9.862;2023-02-01T02:31:54;101084.00;;;4.01;100.00
23241;BME280;11789;53.482;9.862;2023-02-01T02:37:32;101084.00;;;4.01;100.00
23241;BME280;11789;53.482;9.862;2023-02-01T02:40:18;101085.63;;;3.99;100.00
23241;BME280;11789;53.482;9.862;2023-02-01T02:45:48;101074.53;;;3.98;100.00
23241;BME280;11789;53.482;9.862;2023-02-01T02:48:43;101062.56;;;3.97;100.00
23241;BME280;11789;53.482;9.862;2023-02-01T02:51:14;101061.72;;;3.97;100.00
23241;BME280;11789;53.482;9.862;2023-02-01T02:56:43;101046.25;;;3.94;100.00
23241;BME280;11789;53.482;9.862;2023-02-01T02:59:28;101051.31;;;3.90;100.00
23241;BME280;11789;53.482;9.862;2023-02-01T03:02:15;101049.53;;;3.89;100.00
23241;BME280;11789;53.482;9.862;2023-02-01T03:05:01;101033.31;;;3.87;100.00
23241;BME280;11789;53.482;9.862;2023-02-01T03:12:41;101032.41;;;3.85;100.00
23241;BME280;11789;53.482;9.862;2023-02-01T03:15:25;101032.31;;;3.82;100.00
23241;BME280;11789;53.482;9.862;2023-02-01T03:17:55;101033.97;;;3.80;100.00
23241;BME280;11789;53.482;9.862;2023-02-01T03:20:22;101032.19;;;3.79;100.00
23241;BME280;11789;53.482;9.862;2023-02-01T03:22:51;101042.34;;;3.76;100.00
23241;BME280;11789;53.482;9.862;2023-02-01T03:25:23;101042.12;;;3.69;100.00
23241;BME280;11789;53.482;9.862;2023-02-01T03:27:57;101035.12;;;3.63;100.00
23241;BME280;11789;53.482;9.862;2023-02-01T03:30:27;101036.66;;;3.56;100.00
23241;BME280;11789;53.482;9.862;2023-02-01T03:32:57;101033.03;;;3.50;100.00
23241;BME280;11789;53.482;9.862;2023-02-01T03:35:42;101041.44;;;3.46;100.00
23241;BME280;11789;53.482;9.862;2023-02-01T03:38:38;101037.94;;;3.44;100.00
23241;BME280;11789;53.482;9.862;2023-02-01T03:41:15;101036.19;;;3.41;100.00
23241;BME280;11789;53.482;9.862;2023-02-01T03:43:48;101029.38;;;3.42;100.00
23241;BME280;11789;53.482;9.862;2023-02-01T03:46:22;101018.28;;;3.41;100.00
23241;BME280;11789;53.482;9.862;2023-02-01T03:48:50;101017.41;;;3.41;100.00
23241;BME280;11789;53.482;9.862;2023-02-01T03:51:19;101008.00;;;3.39;100.00
23241;BME280;11789;53.482;9.862;2023-02-01T03:53:47;101008.00;;;3.39;100.00
23241;BME280;11789;53.482;9.862;2023-02-01T03:56:15;101002.81;;;3.36;100.00
23241;BME280;11789;53.482;9.862;2023-02-01T03:58:43;100994.28;;;3.36;100.00
23241;BME280;11789;53.482;9.862;2023-02-01T04:01:23;100990.78;;;3.34;100.00
23241;BME280;11789;53.482;9.862;2023-02-01T04:03:48;100990.75;;;3.32;100.00
23241;BME280;11789;53.482;9.862;2023-02-01T04:06:15;100984.75;;;3.30;100.00
23241;BME280;11789;53.482;9.862;2023-02-01T04:08:40;100986.37;;;3.28;100.00
23241;BME280;11789;53.482;9.862;2023-02-01T04:11:05;100982.91;;;3.26;100.00
23241;BME280;11789;53.482;9.862;2023-02-01T04:13:31;100984.62;;;3.27;100.00
23241;BME280;11789;53.482;9.862;2023-02-01T04:15:56;100981.25;;;3.28;100.00
23241;BME280;11789;53.482;9.862;2023-02-01T04:18:22;100991.47;;;3.28;100.00
23241;BME280;11789;53.482;9.862;2023-02-01T04:20:47;100986.37;;;3.28;100.00
23241;BME280;11789;53.482;9.862;2023-02-01T04:23:12;100987.28;;;3.30;100.00
23241;BME280;11789;53.482;9.862;2023-02-01T04:25:38;100983.91;;;3.31;100.00
23241;BME280;11789;53.482;9.862;2023-02-01T04:28:04;100979.63;;;3.30;100.00
23241;BME280;11789;53.482;9.862;2023-02-01T04:30:30;100974.59;;;3.33;100.00
23241;BME280;11789;53.482;9.862;2023-02-01T04:32:55;100972.87;;;3.32;100.00
23241;BME280;11789;53.482;9.862;2023-02-01T04:35:21;100968.66;;;3.34;100.00
23241;BME280;11789;53.482;9.862;2023-02-01T04:37:47;100970.41;;;3.35;100.00
23241;BME280;11789;53.482;9.862;2023-02-01T04:40:12;100978.88;;;3.34;100.00
23241;BME280;11789;53.482;9.862;2023-02-01T04:42:38;100969.63;;;3.38;100.00
23241;BME280;11789;53.482;9.862;2023-02-01T04:45:03;100964.47;;;3.36;100.00
23241;BME280;11789;53.482;9.862;2023-02-01T04:47:29;100958.50;;;3.36;100.00
23241;BME280;11789;53.482;9.862;2023-02-01T04:49:54;100958.41;;;3.33;100.00
23241;BME280;11789;53.482;9.862;2023-02-01T04:52:20;100953.22;;;3.30;100.00
23241;BME280;11789;53.482;9.862;2023-02-01T04:54:45;100953.97;;;3.27;100.00
23241;BME280;11789;53.482;9.862;2023-02-01T04:57:11;100955.66;;;3.27;100.00
23241;BME280;11789;53.482;9.862;2023-02-01T04:59:39;100963.97;;;3.20;100.00
23241;BME280;11789;53.482;9.862;2023-02-01T05:02:04;100991.09;;;3.16;100.00
23241;BME280;11789;53.482;9.862;2023-02-01T05:04:29;100996.97;;;3.13;100.00
23241;BME280;11789;53.482;9.862;2023-02-01T05:06:55;100997.72;;;3.09;100.00
23241;BME280;11789;53.482;9.862;2023-02-01T05:09:20;101008.69;;;3.07;100.00
23241;BME280;11789;53.482;9.862;2023-02-01T05:11:47;101028.09;;;3.02;100.00
23241;BME280;11789;53.482;9.862;2023-02-01T05:14:31;101019.28;;;2.92;100.00
23241;BME280;11789;53.482;9.862;2023-02-01T05:16:56;101030.56;;;2.73;100.00
23241;BME280;11789;53.482;9.862;2023-02-01T05:19:22;101021.62;;;2.60;100.00
23241;BME280;11789;53.482;9.862;2023-02-01T05:21:47;101004.16;;;2.47;100.00
23241;BME280;11789;53.482;9.862;2023-02-01T05:24:12;100988.28;;;2.30;100.00
23241;BME280;11789;53.482;9.862;2023-02-01T05:26:40;100951.13;;;2.13;100.00
23241;BME280;11789;53.482;9.862;2023-02-01T05:29:06;100939.00;;;2.07;100.00
23241;BME280;11789;53.482;9.862;2023-02-01T05:31:32;100934.66;;;2.03;100.00
23241;BME280;11789;53.482;9.862;2023-02-01T05:33:58;100920.09;;;2.01;100.00
23241;BME280;11789;53.482;9.862;2023-02-01T05:36:24;100906.47;;;2.00;100.00
23241;BME280;11789;53.482;9.862;2023-02-01T05:38:49;100907.34;;;2.01;100.00
23241;BME280;11789;53.482;9.862;2023-02-01T05:41:15;100937.12;;;2.02;100.00
23241;BME280;11789;53.482;9.862;2023-02-01T05:43:40;100959.28;;;2.03;100.00
23241;BME280;11789;53.482;9.862;2023-02-01T05:46:05;100974.62;;;2.04;100.00
23241;BME280;11789;53.482;9.862;2023-02-01T05:48:31;100964.38;;;2.03;100.00
23241;BME280;11789;53.482;9.862;2023-02-01T05:50:56;100973.63;;;2.01;100.00
23241;BME280;11789;53.482;9.862;2023-02-01T05:53:22;100976.97;;;1.98;100.00
23241;BME280;11789;53.482;9.862;2023-02-01T05:55:47;100973.59;;;1.99;100.00
23241;BME280;11789;53.482;9.862;2023-02-01T05:58:13;100976.22;;;2.02;100.00
23241;BME280;11789;53.482;9.862;2023-02-01T06:00:38;100966.97;;;2.04;100.00
23241;BME280;11789;53.482;9.862;2023-02-01T06:03:04;100965.41;;;2.08;100.00
23241;BME280;11789;53.482;9.862;2023-02-01T06:05:29;100958.63;;;2.08;100.00
23241;BME280;11789;53.482;9.862;2023-02-01T06:07:55;100949.44;;;2.14;100.00
23241;BME280;11789;53.482;9.862;2023-02-01T06:10:21;100940.16;;;2.16;100.00
23241;BME280;11789;53.482;9.862;2023-02-01T06:12:46;100935.09;;;2.17;100.00
23241;BME280;11789;53.482;9.862;2023-02-01T06:15:12;100941.13;;;2.19;100.00
23241;BME280;11789;53.482;9.862;2023-02-01T06:17:41;100947.25;;;2.24;100.00
23241;BME280;11789;53.482;9.862;2023-02-01T06:20:09;100937.97;;;2.26;100.00
23241;BME280;11789;53.482;9.862;2023-02-01T06:22:34;100938.09;;;2.29;100.00
23241;BME280;11789;53.482;9.862;2023-02-01T06:25:05;100929.72;;;2.33;100.00
23241;BME280;11789;53.482;9.862;2023-02-01T06:27:31;100945.97;;;2.37;100.00
23241;BME280;11789;53.482;9.862;2023-02-01T06:29:57;100942.69;;;2.40;100.00
23241;BME280;11789;53.482;9.862;2023-02-01T06:32:22;100945.28;;;2.41;100.00
23241;BME280;11789;53.482;9.862;2023-02-01T06:34:49;100950.53;;;2.46;100.00
23241;BME280;11789;53.482;9.862;2023-02-01T06:37:14;100958.31;;;2.49;100.00
23241;BME280;11789;53.482;9.862;2023-02-01T06:39:39;100956.66;;;2.51;100.00
23241;BME280;11789;53.482;9.862;2023-02-01T06:42:05;100957.56;;;2.53;100.00
23241;BME280;11789;53.482;9.862;2023-02-01T06:44:30;100959.37;;;2.55;100.00
23241;BME280;11789;53.482;9.862;2023-02-01T06:46:56;100946.59;;;2.55;100.00
23241;BME280;11789;53.482;9.862;2023-02-01T06:49:21;100946.66;;;2.57;100.00
23241;BME280;11789;53.482;9.862;2023-02-01T06:51:47;100947.62;;;2.60;100.00
23241;BME280;11789;53.482;9.862;2023-02-01T06:54:12;100941.84;;;2.66;100.00
23241;BME280;11789;53.482;9.862;2023-02-01T06:56:38;100946.13;;;2.67;100.00
23241;BME280;11789;53.482;9.862;2023-02-01T06:59:05;100949.63;;;2.69;100.00
23241;BME280;11789;53.482;9.862;2023-02-01T07:01:30;100954.81;;;2.72;100.00
23241;BME280;11789;53.482;9.862;2023-02-01T07:03:56;100957.44;;;2.74;100.00
23241;BME280;11789;53.482;9.862;2023-02-01T07:06:21;100956.66;;;2.76;100.00
23241;BME280;11789;53.482;9.862;2023-02-01T07:08:47;100970.28;;;2.77;100.00
23241;BME280;11789;53.482;9.862;2023-02-01T07:11:14;100958.53;;;2.82;100.00
23241;BME280;11789;53.482;9.862;2023-02-01T07:13:40;100949.09;;;2.79;100.00
23241;BME280;11789;53.482;9.862;2023-02-01T07:16:09;100950.78;;;2.79;100.00
23241;BME280;11789;53.482;9.862;2023-02-01T07:18:35;100953.38;;;2.80;100.00
23241;BME280;11789;53.482;9.862;2023-02-01T07:21:00;100949.88;;;2.78;100.00
23241;BME280;11789;53.482;9.862;2023-02-01T07:23:26;100958.34;;;2.76;100.00
23241;BME280;11789;53.482;9.862;2023-02-01T07:25:57;100953.22;;;2.76;100.00
23241;BME280;11789;53.482;9.862;2023-02-01T07:28:24;100949.09;;;2.79;100.00
23241;BME280;11789;53.482;9.862;2023-02-01T07:30:50;100956.16;;;2.88;100.00
23241;BME280;11789;53.482;9.862;2023-02-01T07:33:21;100953.94;;;2.99;100.00
23241;BME280;11789;53.482;9.862;2023-02-01T07:35:48;100958.31;;;3.03;100.00
23241;BME280;11789;53.482;9.862;2023-02-01T07:38:14;100953.31;;;3.06;100.00
23241;BME280;11789;53.482;9.862;2023-02-01T07:40:40;100952.50;;;3.07;100.00
23241;BME280;11789;53.482;9.862;2023-02-01T07:43:05;100955.09;;;3.08;100.00
23241;BME280;11789;53.482;9.862;2023-02-01T07:45:33;100945.81;;;3.10;100.00
23241;BME280;11789;53.482;9.862;2023-02-01T07:47:59;100950.13;;;3.13;100.00
23241;BME280;11789;53.482;9.862;2023-02-01T07:50:24;100946.09;;;3.20;100.00
23241;BME280;11789;53.482;9.862;2023-02-01T07:52:49;100950.53;;;3.25;100.00
23241;BME280;11789;53.482;9.862;2023-02-01T07:55:15;100954.88;;;3.29;100.00
23241;BME280;11789;53.482;9.862;2023-02-01T07:57:40;100961.88;;;3.35;100.00
23241;BME280;11789;53.482;9.862;2023-02-01T08:00:07;100957.88;;;3.45;100.00
23241;BME280;11789;53.482;9.862;2023-02-01T08:02:51;100969.94;;;3.49;100.00
23241;BME280;11789;53.482;9.862;2023-02-01T08:05:17;100964.03;;;3.50;100.00
23241;BME280;11789;53.482;9.862;2023-02-01T08:07:42;100964.84;;;3.49;100.00
23241;BME280;11789;53.482;9.862;2023-02-01T08:10:08;100965.06;;;3.56;100.00
23241;BME280;11789;53.482;9.862;2023-02-01T08:12:36;100963.34;;;3.55;100.00
23241;BME280;11789;53.482;9.862;2023-02-01T08:15:03;100957.31;;;3.53;100.00
23241;BME280;11789;53.482;9.862;2023-02-01T08:17:29;100971.78;;;3.53;100.00
23241;BME280;11789;53.482;9.862;2023-02-01T08:19:55;100977.91;;;3.59;100.00
23241;BME280;11789;53.482;9.862;2023-02-01T08:22:21;100968.13;;;3.75;100.00
23241;BME280;11789;53.482;9.862;2023-02-01T08:24:49;100983.59;;;4.09;100.00
23241;BME280;11789;53.482;9.862;2023-02-01T08:27:15;100990.59;;;4.47;100.00
23241;BME280;11789;53.482;9.862;2023-02-01T08:29:41;100996.00;;;4.57;100.00
23241;BME280;11789;53.482;9.862;2023-02-01T08:32:06;100995.88;;;4.53;100.00
23241;BME280;11789;53.482;9.862;2023-02-01T08:34:32;100995.50;;;4.39;100.00
23241;BME280;11789;53.482;9.862;2023-02-01T08:36:57;101001.19;;;4.29;100.00
23241;BME280;11789;53.482;9.862;2023-02-01T08:39:24;101001.31;;;4.33;100.00
23241;BME280;11789;53.482;9.862;2023-02-01T08:41:49;101002.50;;;4.79;100.00
23241;BME280;11789;53.482;9.862;2023-02-01T08:44:35;100994.78;;;4.78;100.00
23241;BME280;11789;53.482;9.862;2023-02-01T08:47:02;100995.72;;;4.81;100.00
23241;BME280;11789;53.482;9.862;2023-02-01T08:49:27;100994.84;;;5.17;100.00
23241;BME280;11789;53.482;9.862;2023-02-01T08:51:53;100995.31;;;4.99;100.00
23241;BME280;11789;53.482;9.862;2023-02-01T08:54:18;100997.25;;;4.73;100.00
23241;BME280;11789;53.482;9.862;2023-02-01T08:56:44;100991.00;;;4.63;100.00
23241;BME280;11789;53.482;9.862;2023-02-01T08:59:09;100978.78;;;4.52;100.00
23241;BME280;11789;53.482;9.862;2023-02-01T09:01:35;100983.72;;;4.79;100.00
23241;BME280;11789;53.482;9.862;2023-02-01T09:04:00;100977.22;;;6.56;100.00
23241;BME280;11789;53.482;9.862;2023-02-01T09:06:25;100970.78;;;6.33;100.00
23241;BME280;11789;53.482;9.862;2023-02-01T09:08:51;100970.28;;;5.63;100.00
23241;BME280;11789;53.482;9.862;2023-02-01T09:11:17;100980.31;;;5.16;100.00
23241;BME280;11789;53.482;9.862;2023-02-01T09:13:44;100962.81;;;5.34;100.00
23241;BME280;11789;53.482;9.862;2023-02-01T09:16:10;100966.09;;;7.71;95.67
23241;BME280;11789;53.482;9.862;2023-02-01T09:18:35;100956.50;;;6.48;96.16
23241;BME280;11789;53.482;9.862;2023-02-01T09:21:06;100949.56;;;5.55;100.00
23241;BME280;11789;53.482;9.862;2023-02-01T09:23:32;100962.13;;;5.05;100.00
23241;BME280;11789;53.482;9.862;2023-02-01T09:26:02;100961.72;;;4.87;100.00
23241;BME280;11789;53.482;9.862;2023-02-01T09:28:28;100959.19;;;5.26;100.00
23241;BME280;11789;53.482;9.862;2023-02-01T09:30:58;100956.00;;;5.77;100.00
23241;BME280;11789;53.482;9.862;2023-02-01T09:33:26;100954.81;;;6.02;100.00
23241;BME280;11789;53.482;9.862;2023-02-01T09:36:00;100960.16;;;7.78;97.43
23241;BME280;11789;53.482;9.862;2023-02-01T09:38:26;100955.56;;;9.35;84.47
23241;BME280;11789;53.482;9.862;2023-02-01T09:40:53;100961.56;;;8.29;84.55
23241;BME280;11789;53.482;9.862;2023-02-01T09:46:21;100962.31;;;5.91;96.95
23241;BME280;11789;53.482;9.862;2023-02-01T09:48:49;100973.25;;;5.43;100.00
23241;BME280;11789;53.482;9.862;2023-02-01T09:51:21;100976.25;;;5.24;100.00
23241;BME280;11789;53.482;9.862;2023-02-01T09:56:25;100975.28;;;5.19;100.00
23241;BME280;11789;53.482;9.862;2023-02-01T09:59:01;100961.09;;;5.35;100.00
23241;BME280;11789;53.482;9.862;2023-02-01T10:01:29;100972.06;;;5.28;100.00
23241;BME280;11789;53.482;9.862;2023-02-01T10:04:03;100978.69;;;5.18;100.00
23241;BME280;11789;53.482;9.862;2023-02-01T10:23:36;100966.34;;;4.67;100.00
23241;BME280;11789;53.482;9.862;2023-02-01T10:28:49;100972.87;;;4.56;100.00
23241;BME280;11789;53.482;9.862;2023-02-01T10:31:15;100967.62;;;4.50;100.00
23241;BME280;11789;53.482;9.862;2023-02-01T10:33:45;100970.13;;;4.47;100.00
23241;BME280;11789;53.482;9.862;2023-02-01T10:36:16;100958.09;;;4.44;100.00
23241;BME280;11789;53.482;9.862;2023-02-01T10:38:45;100954.63;;;4.42;100.00
23241;BME280;11789;53.482;9.862;2023-02-01T10:41:17;100947.81;;;4.42;100.00
23241;BME280;11789;53.482;9.862;2023-02-01T10:43:46;100938.41;;;4.41;100.00
23241;BME280;11789;53.482;9.862;2023-02-01T10:46:13;100923.00;;;4.40;100.00
23241;BME280;11789;53.482;9.862;2023-02-01T10:48:39;100914.53;;;4.42;100.00
23241;BME280;11789;53.482;9.862;2023-02-01T10:53:51;100897.59;;;4.48;100.00
23241;BME280;11789;53.482;9.862;2023-02-01T10:56:25;100896.78;;;4.50;100.00
23241;BME280;11789;53.482;9.862;2023-02-01T10:59:00;100899.34;;;4.50;100.00
23241;BME280;11789;53.482;9.862;2023-02-01T11:01:39;100891.75;;;4.53;100.00
23241;BME280;11789;53.482;9.862;2023-02-01T11:04:10;100896.75;;;4.47;100.00
23241;BME280;11789;53.482;9.862;2023-02-01T11:06:40;100884.66;;;4.41;100.00
23241;BME280;11789;53.482;9.862;2023-02-01T11:14:18;100869.31;;;4.41;100.00
23241;BME280;11789;53.482;9.862;2023-02-01T11:16:49;100869.41;;;4.46;100.00
23241;BME280;11789;53.482;9.862;2023-02-01T11:19:16;100866.88;;;4.48;100.00
23241;BME280;11789;53.482;9.862;2023-02-01T11:21:43;100865.97;;;4.46;100.00
23241;BME280;11789;53.482;9.862;2023-02-01T11:24:32;100860.91;;;4.47;100.00
23241;BME280;11789;53.482;9.862;2023-02-01T11:27:02;100861.81;;;4.51;100.00
23241;BME280;11789;53.482;9.862;2023-02-01T11:29:50;100861.03;;;4.53;100.00
23241;BME280;11789;53.482;9.862;2023-02-01T11:32:18;100872.13;;;4.52;100.00
23241;BME280;11789;53.482;9.862;2023-02-01T11:34:52;100872.13;;;4.52;100.00
23241;BME280;11789;53.482;9.862;2023-02-01T11:40:22;100848.22;;;4.52;100.00
23241;BME280;11789;53.482;9.862;2023-02-01T11:43:07;100849.84;;;4.50;100.00
23241;BME280;11789;53.482;9.862;2023-02-01T11:45:33;100859.19;;;4.46;100.00
23241;BME280;11789;53.482;9.862;2023-02-01T11:48:00;100847.25;;;4.47;100.00
23241;BME280;11789;53.482;9.862;2023-02-01T11:50:34;100844.59;;;4.43;100.00
23241;BME280;11789;53.482;9.862;2023-02-01T11:58:36;100820.13;;;4.20;100.00
23241;BME280;11789;53.482;9.862;2023-02-01T12:15:07;100818.00;;;4.02;100.00
23241;BME280;11789;53.482;9.862;2023-02-01T12:17:54;100812.06;;;4.03;100.00
23241;BME280;11789;53.482;9.862;2023-02-01T12:29:16;100834.97;;;4.00;100.00
23241;BME280;11789;53.482;9.862;2023-02-01T12:34:03;100839.03;;;3.90;100.00
23241;BME280;11789;53.482;9.862;2023-02-01T12:36:48;100842.19;;;3.82;100.00
23241;BME280;11789;53.482;9.862;2023-02-01T12:39:23;100838.41;;;3.68;100.00
23241;BME280;11789;53.482;9.862;2023-02-01T12:41:55;100853.56;;;3.60;100.00
23241;BME280;11789;53.482;9.862;2023-02-01T12:44:46;100858.34;;;3.49;100.00
23241;BME280;11789;53.482;9.862;2023-02-01T12:47:51;100856.34;;;3.39;100.00
23241;BME280;11789;53.482;9.862;2023-02-01T12:50:31;100858.59;;;3.27;100.00
23241;BME280;11789;53.482;9.862;2023-02-01T12:53:25;100860.81;;;3.16;100.00
23241;BME280;11789;53.482;9.862;2023-02-01T12:56:01;100856.41;;;3.10;100.00
23241;BME280;11789;53.482;9.862;2023-02-01T12:58:40;100856.28;;;3.06;100.00
23241;BME280;11789;53.482;9.862;2023-02-01T13:01:29;100835.56;;;2.97;100.00
23241;BME280;11789;53.482;9.862;2023-02-01T13:04:08;100832.97;;;2.95;100.00
23241;BME280;11789;53.482;9.862;2023-02-01T13:06:46;100845.75;;;2.95;100.00
23241;BME280;11789;53.482;9.862;2023-02-01T13:12:04;100824.25;;;2.89;100.00
23241;BME280;11789;53.482;9.862;2023-02-01T13:14:42;100815.69;;;2.86;100.00
23241;BME280;11789;53.482;9.862;2023-02-01T13:17:15;100821.69;;;2.89;100.00
23241;BME280;11789;53.482;9.862;2023-02-01T13:22:35;100811.75;;;2.98;100.00
23241;BME280;11789;53.482;9.862;2023-02-01T13:25:12;100808.59;;;3.06;100.00
23241;BME280;11789;53.482;9.862;2023-02-01T13:27:38;100810.50;;;3.13;100.00
23241;BME280;11789;53.482;9.862;2023-02-01T13:30:18;100816.59;;;3.19;100.00
23241;BME280;11789;53.482;9.862;2023-02-01T13:35:36;100821.97;;;3.28;100.00
23241;BME280;11789;53.482;9.862;2023-02-01T13:38:20;100821.16;;;3.29;100.00
23241;BME280;11789;53.482;9.862;2023-02-01T13:43:44;100822.00;;;3.29;100.00
23241;BME280;11789;53.482;9.862;2023-02-01T13:46:13;100827.03;;;3.25;100.00
23241;BME280;11789;53.482;9.862;2023-02-01T13:48:51;100822.56;;;3.19;100.00
23241;BME280;11789;53.482;9.862;2023-02-01T13:53:56;100811.44;;;3.16;100.00
23241;BME280;11789;53.482;9.862;2023-02-01T13:56:23;100809.72;;;3.15;100.00
23241;BME280;11789;53.482;9.862;2023-02-01T13:58:50;100813.16;;;3.17;100.00
23241;BME280;11789;53.482;9.862;2023-02-01T14:11:41;100806.87;;;3.35;100.00
23241;BME280;11789;53.482;9.862;2023-02-01T14:19:21;100815.78;;;3.50;100.00
23241;BME280;11789;53.482;9.862;2023-02-01T14:21:51;100814.22;;;3.55;100.00
23241;BME280;11789;53.482;9.862;2023-02-01T14:24:26;100813.41;;;3.56;100.00
23241;BME280;11789;53.482;9.862;2023-02-01T14:26:53;100816.81;;;3.56;100.00
23241;BME280;11789;53.482;9.862;2023-02-01T14:32:21;100811.66;;;3.55;100.00
23241;BME280;11789;53.482;9.862;2023-02-01T14:34:51;100844.06;;;3.56;100.00
23241;BME280;11789;53.482;9.862;2023-02-01T14:39:52;100851.59;;;3.51;100.00
23241;BME280;11789;53.482;9.862;2023-02-01T14:42:26;100893.22;;;3.47;100.00
23241;BME280;11789;53.482;9.862;2023-02-01T14:44:55;100924.34;;;3.34;100.00
23241;BME280;11789;53.482;9.862;2023-02-01T14:49:55;100895.41;;;3.05;100.00
23241;BME280;11789;53.482;9.862;2023-02-01T14:52:35;100894.34;;;2.98;100.00
23241;BME280;11789;53.482;9.862;2023-02-01T14:55:34;100900.12;;;2.93;100.00
23241;BME280;11789;53.482;9.862;2023-02-01T14:57:58;100898.41;;;2.92;100.00
23241;BME280;11789;53.482;9.862;2023-02-01T15:00:28;100905.16;;;2.90;100.00
23241;BME280;11789;53.482;9.862;2023-02-01T15:03:15;100911.97;;;2.89;100.00
23241;BME280;11789;53.482;9.862;2023-02-01T15:05:41;100910.28;;;2.90;100.00
23241;BME280;11789;53.482;9.862;2023-02-01T15:08:31;100906.88;;;2.91;100.00
23241;BME280;11789;53.482;9.862;2023-02-01T15:11:00;100907.78;;;2.93;100.00
23241;BME280;11789;53.482;9.862;2023-02-01T15:13:28;100905.22;;;2.93;100.00